createdAt,value
2018-11-07T01:29:19.437Z,6.99
2018-11-07T01:29:20.012Z,6.98
2018-11-07T01:29:20.610Z,7.04
2018-11-07T01:29:21.210Z,7.05
2018-11-07T01:29:21.813Z,6.94
2018-11-07T01:29:22.411Z,7.05
2018-11-07T01:29:23.008Z,7.05
2018-11-07T01:30:17.067Z,7.02
2018-11-07T01:30:17.665Z,7.12
2018-11-07T01:30:18.263Z,7.07
2018-11-07T01:30:18.865Z,7.01
2018-11-07T01:30:19.462Z,7.02
2018-11-07T01:30:20.062Z,6.99
2018-11-07T01:30:20.663Z,7.09
2018-11-07T01:31:14.740Z,6.99
2018-11-07T01:31:15.315Z,7.08
2018-11-07T01:31:15.915Z,6.99
2018-11-07T01:31:16.514Z,7.07
2018-11-07T01:31:17.113Z,7.08
2018-11-07T01:31:17.714Z,7.05
2018-11-07T01:31:18.314Z,6.99
2018-11-07T01:32:12.371Z,7.04
2018-11-07T01:32:12.967Z,7.07
2018-11-07T01:32:13.567Z,7.01
2018-11-07T01:32:14.166Z,7.07
2018-11-07T01:32:14.767Z,7.05
2018-11-07T01:32:15.367Z,7.01
2018-11-07T01:32:15.970Z,7.09
2018-11-07T01:33:10.023Z,6.97
2018-11-07T01:33:10.627Z,7.05
2018-11-07T01:33:11.220Z,7.05
2018-11-07T01:33:11.819Z,6.97
2018-11-07T01:33:12.419Z,7.05
2018-11-07T01:33:13.018Z,7.01
2018-11-07T01:33:13.618Z,6.97
2018-11-07T01:34:07.677Z,7.04
2018-11-07T01:34:08.271Z,7.04
2018-11-07T01:34:08.871Z,7.05
2018-11-07T01:34:09.472Z,7.07
2018-11-07T01:34:10.074Z,7.04
2018-11-07T01:34:10.675Z,7.04
2018-11-07T01:34:11.268Z,7.04
2018-11-07T01:35:05.327Z,7.05
2018-11-07T01:35:05.923Z,7.04
2018-11-07T01:35:06.523Z,7.02
2018-11-07T01:35:07.124Z,7.07
2018-11-07T01:35:07.724Z,7.07
2018-11-07T01:35:08.326Z,7.05
2018-11-07T01:35:08.922Z,7.02
2018-11-07T01:36:03.001Z,7.05
2018-11-07T01:36:03.576Z,7.04
2018-11-07T01:36:04.181Z,7.01
2018-11-07T01:36:04.777Z,7.09
2018-11-07T01:36:05.375Z,7.07
2018-11-07T01:36:05.976Z,7.01
2018-11-07T01:36:06.575Z,7.02
2018-11-07T01:37:00.631Z,7.07
2018-11-07T01:37:01.232Z,7.07
2018-11-07T01:37:01.828Z,7.07
2018-11-07T01:37:02.429Z,7.05
2018-11-07T01:37:03.028Z,6.97
2018-11-07T01:37:03.628Z,6.97
2018-11-07T01:37:04.227Z,7.04
2018-11-07T01:37:58.283Z,7.02
2018-11-07T01:37:58.881Z,7.07
2018-11-07T01:37:59.481Z,7.02
2018-11-07T01:38:00.080Z,6.97
2018-11-07T01:38:00.679Z,7.07
2018-11-07T01:38:01.279Z,7.15
2018-11-07T01:38:01.880Z,7.12
2018-11-07T01:38:55.933Z,7.01
2018-11-07T01:38:56.534Z,7.09
2018-11-07T01:38:57.133Z,7.07
2018-11-07T01:38:57.731Z,7.08
2018-11-07T01:38:58.331Z,7.07
2018-11-07T01:38:58.932Z,6.99
2018-11-07T01:38:59.532Z,7.05
2018-11-07T01:39:53.589Z,7.09
2018-11-07T01:39:54.183Z,7.16
2018-11-07T01:39:54.782Z,7.08
2018-11-07T01:39:55.383Z,7.12
2018-11-07T01:39:55.983Z,7.16
2018-11-07T01:39:56.582Z,7.17
2018-11-07T01:39:57.183Z,7.05
2018-11-07T01:40:51.263Z,7.12
2018-11-07T01:40:51.835Z,7.04
2018-11-07T01:40:52.435Z,7.16
2018-11-07T01:40:53.035Z,7.12
2018-11-07T01:40:53.636Z,7.09
2018-11-07T01:40:54.235Z,7.16
2018-11-07T01:40:54.837Z,7.07
2018-11-07T01:41:48.904Z,7.12
2018-11-07T01:41:49.526Z,7.13
2018-11-07T01:41:50.113Z,7.09
2018-11-07T01:41:50.738Z,7.15
2018-11-07T01:41:51.342Z,7.12
2018-11-07T01:41:51.918Z,7.15
2018-11-07T01:41:52.491Z,7.16
2018-11-07T01:42:46.543Z,7.15
2018-11-07T01:42:47.140Z,7.12
2018-11-07T01:42:47.739Z,7.05
2018-11-07T01:42:48.339Z,7.04
2018-11-07T01:42:48.942Z,7.09
2018-11-07T01:42:49.540Z,7.16
2018-11-07T01:42:50.142Z,7.05
2018-11-07T01:43:44.195Z,7.17
2018-11-07T01:43:44.792Z,7.23
2018-11-07T01:43:45.390Z,7.26
2018-11-07T01:43:45.990Z,7.19
2018-11-07T01:43:46.591Z,7.08
2018-11-07T01:43:47.191Z,7.20
2018-11-07T01:43:47.792Z,7.16
2018-11-07T01:44:41.847Z,7.22
2018-11-07T01:44:42.443Z,7.26
2018-11-07T01:44:43.042Z,7.22
2018-11-07T01:44:43.643Z,7.20
2018-11-07T01:44:44.241Z,7.24
2018-11-07T01:44:44.841Z,7.27
2018-11-07T01:44:45.441Z,7.20
2018-11-07T01:45:39.498Z,7.19
2018-11-07T01:45:40.095Z,7.27
2018-11-07T01:45:40.694Z,7.27
2018-11-07T01:45:41.294Z,7.27
2018-11-07T01:45:41.896Z,7.23
2018-11-07T01:45:42.494Z,7.23
2018-11-07T01:45:43.096Z,7.29
2018-11-07T01:46:37.172Z,7.31
2018-11-07T01:46:37.746Z,7.24
2018-11-07T01:46:38.345Z,7.32
2018-11-07T01:46:38.945Z,7.29
2018-11-07T01:46:39.549Z,7.35
2018-11-07T01:46:40.146Z,7.29
2018-11-07T01:46:40.745Z,7.34
2018-11-07T01:47:34.801Z,7.32
2018-11-07T01:47:35.398Z,7.35
2018-11-07T01:47:35.996Z,7.34
2018-11-07T01:47:36.599Z,7.37
2018-11-07T01:47:37.197Z,7.35
2018-11-07T01:47:37.797Z,7.35
2018-11-07T01:47:38.399Z,7.35
2018-11-07T01:48:32.451Z,7.34
2018-11-07T01:48:33.050Z,7.35
2018-11-07T01:48:33.651Z,7.37
2018-11-07T01:48:34.250Z,7.29
2018-11-07T01:48:34.849Z,7.35
2018-11-07T01:48:35.448Z,7.34
2018-11-07T01:48:36.048Z,7.31
2018-11-07T01:49:30.103Z,7.32
2018-11-07T01:49:30.702Z,7.40
2018-11-07T01:49:31.301Z,7.41
2018-11-07T01:49:31.902Z,7.35
2018-11-07T01:49:32.502Z,7.44
2018-11-07T01:49:33.101Z,7.29
2018-11-07T01:49:33.701Z,7.47
2018-11-07T01:50:27.757Z,7.29
2018-11-07T01:50:28.354Z,7.45
2018-11-07T01:50:28.953Z,7.44
2018-11-07T01:50:29.552Z,7.42
2018-11-07T01:50:30.151Z,7.42
2018-11-07T01:50:30.753Z,7.47
2018-11-07T01:50:31.353Z,7.44
2018-11-07T01:51:25.432Z,7.41
2018-11-07T01:51:26.006Z,7.44
2018-11-07T01:51:26.610Z,7.44
2018-11-07T01:51:27.204Z,7.44
2018-11-07T01:51:27.804Z,7.45
2018-11-07T01:51:28.404Z,7.42
2018-11-07T01:51:29.003Z,7.44
2018-11-07T01:52:23.062Z,7.45
2018-11-07T01:52:23.656Z,7.44
2018-11-07T01:52:24.256Z,7.44
2018-11-07T01:52:24.857Z,7.42
2018-11-07T01:52:25.461Z,7.44
2018-11-07T01:52:26.055Z,7.42
2018-11-07T01:52:26.657Z,7.40
2018-11-07T01:53:20.712Z,7.47
2018-11-07T01:53:21.310Z,7.55
2018-11-07T01:53:21.909Z,7.45
2018-11-07T01:53:22.508Z,7.42
2018-11-07T01:53:23.115Z,7.41
2018-11-07T01:53:23.708Z,7.53
2018-11-07T01:53:24.314Z,7.41
2018-11-07T01:54:18.366Z,7.56
2018-11-07T01:54:18.961Z,7.55
2018-11-07T01:54:19.560Z,7.52
2018-11-07T01:54:20.163Z,7.53
2018-11-07T01:54:20.759Z,7.56
2018-11-07T01:54:21.359Z,7.55
2018-11-07T01:54:21.958Z,7.50
2018-11-07T01:55:16.014Z,7.40
2018-11-07T01:55:16.612Z,7.56
2018-11-07T01:55:17.257Z,7.52
2018-11-07T01:55:17.811Z,7.53
2018-11-07T01:55:18.412Z,7.59
2018-11-07T01:55:19.011Z,7.53
2018-11-07T01:55:19.616Z,7.55
2018-11-07T01:56:13.691Z,7.55
2018-11-07T01:56:14.263Z,7.59
2018-11-07T01:56:14.863Z,7.55
2018-11-07T01:56:15.465Z,7.58
2018-11-07T01:56:16.062Z,7.55
2018-11-07T01:56:16.665Z,7.49
2018-11-07T01:56:17.262Z,7.56
2018-11-07T01:57:11.316Z,7.52
2018-11-07T01:57:11.919Z,7.49
2018-11-07T01:57:12.516Z,7.53
2018-11-07T01:57:13.116Z,7.49
2018-11-07T01:57:13.716Z,7.49
2018-11-07T01:57:14.319Z,7.58
2018-11-07T01:57:14.912Z,7.49
2018-11-07T01:58:08.973Z,7.53
2018-11-07T01:58:09.567Z,7.52
2018-11-07T01:58:10.169Z,7.50
2018-11-07T01:58:10.765Z,7.56
2018-11-07T01:58:11.366Z,7.50
2018-11-07T01:58:11.965Z,7.53
2018-11-07T01:58:12.564Z,7.50
2018-11-07T01:59:06.622Z,7.52
2018-11-07T01:59:07.219Z,7.49
2018-11-07T01:59:07.818Z,7.50
2018-11-07T01:59:08.419Z,7.56
2018-11-07T01:59:09.018Z,7.53
2018-11-07T01:59:09.618Z,7.55
2018-11-07T01:59:10.217Z,7.55
2018-11-07T02:00:04.276Z,7.55
2018-11-07T02:00:04.869Z,7.56
2018-11-07T02:00:05.471Z,7.52
2018-11-07T02:00:06.072Z,7.55
2018-11-07T02:00:06.669Z,7.53
2018-11-07T02:00:07.269Z,7.55
2018-11-07T02:00:07.870Z,7.56
2018-11-07T02:01:01.949Z,7.60
2018-11-07T02:01:02.526Z,7.59
2018-11-07T02:01:03.124Z,7.62
2018-11-07T02:01:03.725Z,7.59
2018-11-07T02:01:04.323Z,7.56
2018-11-07T02:01:04.923Z,7.59
2018-11-07T02:01:05.522Z,7.55
2018-11-07T02:01:59.577Z,7.53
2018-11-07T02:02:00.173Z,7.58
2018-11-07T02:02:00.772Z,7.60
2018-11-07T02:02:01.373Z,7.60
2018-11-07T02:02:01.973Z,7.55
2018-11-07T02:02:02.573Z,7.63
2018-11-07T02:02:03.172Z,7.63
2018-11-07T02:02:57.229Z,7.59
2018-11-07T02:02:57.826Z,7.66
2018-11-07T02:02:58.425Z,7.49
2018-11-07T02:02:59.025Z,7.58
2018-11-07T02:02:59.628Z,7.62
2018-11-07T02:03:00.226Z,7.58
2018-11-07T02:03:00.826Z,7.58
2018-11-07T02:03:54.882Z,7.58
2018-11-07T02:03:55.476Z,7.62
2018-11-07T02:03:56.076Z,7.67
2018-11-07T02:03:56.677Z,7.60
2018-11-07T02:03:57.278Z,7.67
2018-11-07T02:03:57.906Z,7.63
2018-11-07T02:03:58.477Z,7.63
2018-11-07T02:04:52.532Z,7.69
2018-11-07T02:04:53.130Z,7.69
2018-11-07T02:04:53.729Z,7.52
2018-11-07T02:04:54.328Z,7.62
2018-11-07T02:04:54.929Z,7.59
2018-11-07T02:04:55.532Z,7.67
2018-11-07T02:04:56.129Z,7.59
2018-11-07T02:05:50.190Z,7.60
2018-11-07T02:05:50.787Z,7.62
2018-11-07T02:05:51.387Z,7.62
2018-11-07T02:05:51.985Z,7.69
2018-11-07T02:05:52.587Z,7.59
2018-11-07T02:05:53.187Z,7.60
2018-11-07T02:05:53.786Z,7.62
2018-11-07T02:06:47.868Z,7.59
2018-11-07T02:06:48.438Z,7.66
2018-11-07T02:06:49.038Z,7.67
2018-11-07T02:06:49.638Z,7.58
2018-11-07T02:06:50.238Z,7.66
2018-11-07T02:06:50.838Z,7.60
2018-11-07T02:06:51.438Z,7.66
2018-11-07T02:07:45.492Z,7.66
2018-11-07T02:07:46.090Z,7.62
2018-11-07T02:07:46.692Z,7.67
2018-11-07T02:07:47.291Z,7.66
2018-11-07T02:07:47.890Z,7.60
2018-11-07T02:07:48.491Z,7.66
2018-11-07T02:07:49.091Z,7.66
2018-11-07T02:08:43.145Z,7.66
2018-11-07T02:08:43.743Z,7.66
2018-11-07T02:08:44.343Z,7.67
2018-11-07T02:08:44.942Z,7.63
2018-11-07T02:08:45.543Z,7.66
2018-11-07T02:08:46.144Z,7.59
2018-11-07T02:08:46.740Z,7.74
2018-11-07T02:09:40.797Z,7.67
2018-11-07T02:09:41.394Z,7.71
2018-11-07T02:09:41.995Z,7.72
2018-11-07T02:09:42.594Z,7.66
2018-11-07T02:09:43.195Z,7.77
2018-11-07T02:09:43.793Z,7.72
2018-11-07T02:09:44.393Z,7.75
2018-11-07T02:10:38.451Z,7.66
2018-11-07T02:10:39.046Z,7.71
2018-11-07T02:10:39.644Z,7.66
2018-11-07T02:10:40.244Z,7.79
2018-11-07T02:10:40.844Z,7.75
2018-11-07T02:10:41.445Z,7.66
2018-11-07T02:10:42.045Z,7.71
2018-11-07T02:11:36.127Z,7.58
2018-11-07T02:11:36.702Z,7.72
2018-11-07T02:11:37.302Z,7.78
2018-11-07T02:11:37.896Z,7.75
2018-11-07T02:11:38.496Z,7.60
2018-11-07T02:11:39.097Z,7.78
2018-11-07T02:11:39.696Z,7.74
2018-11-07T02:12:33.752Z,7.69
2018-11-07T02:12:34.352Z,7.78
2018-11-07T02:12:34.949Z,7.74
2018-11-07T02:12:35.549Z,7.75
2018-11-07T02:12:36.149Z,7.75
2018-11-07T02:12:36.752Z,7.78
2018-11-07T02:12:37.348Z,7.74
2018-11-07T02:13:31.406Z,7.75
2018-11-07T02:13:32.002Z,7.72
2018-11-07T02:13:32.601Z,7.77
2018-11-07T02:13:33.202Z,7.77
2018-11-07T02:13:33.803Z,7.71
2018-11-07T02:13:34.401Z,7.74
2018-11-07T02:13:35.000Z,7.69
2018-11-07T02:14:29.056Z,7.66
2018-11-07T02:14:29.652Z,7.72
2018-11-07T02:14:30.252Z,7.78
2018-11-07T02:14:30.854Z,7.66
2018-11-07T02:14:31.453Z,7.71
2018-11-07T02:14:32.052Z,7.71
2018-11-07T02:14:32.653Z,7.74
2018-11-07T02:15:26.706Z,7.59
2018-11-07T02:15:27.304Z,7.78
2018-11-07T02:15:27.908Z,7.74
2018-11-07T02:15:28.504Z,7.74
2018-11-07T02:15:29.103Z,7.77
2018-11-07T02:15:29.705Z,7.75
2018-11-07T02:15:30.303Z,7.74
2018-11-07T02:16:24.387Z,7.75
2018-11-07T02:16:24.958Z,7.75
2018-11-07T02:16:25.556Z,7.77
2018-11-07T02:16:26.156Z,7.71
2018-11-07T02:16:26.757Z,7.71
2018-11-07T02:16:27.357Z,7.74
2018-11-07T02:16:27.956Z,7.74
2018-11-07T02:17:22.011Z,7.75
2018-11-07T02:17:22.608Z,7.69
2018-11-07T02:17:23.207Z,7.69
2018-11-07T02:17:23.806Z,7.69
2018-11-07T02:17:24.407Z,7.71
2018-11-07T02:17:25.007Z,7.63
2018-11-07T02:17:25.607Z,7.71
2018-11-07T02:18:19.663Z,7.72
2018-11-07T02:18:20.260Z,7.72
2018-11-07T02:18:20.862Z,7.74
2018-11-07T02:18:21.460Z,7.71
2018-11-07T02:18:22.059Z,7.75
2018-11-07T02:18:22.665Z,7.74
2018-11-07T02:18:23.258Z,7.74
2018-11-07T02:19:17.314Z,7.71
2018-11-07T02:19:17.911Z,7.72
2018-11-07T02:19:18.511Z,7.77
2018-11-07T02:19:19.110Z,7.75
2018-11-07T02:19:19.710Z,7.74
2018-11-07T02:19:20.316Z,7.74
2018-11-07T02:19:20.909Z,7.71
2018-11-07T02:20:14.964Z,7.72
2018-11-07T02:20:15.563Z,7.67
2018-11-07T02:20:16.161Z,7.74
2018-11-07T02:20:16.762Z,7.67
2018-11-07T02:20:17.363Z,7.78
2018-11-07T02:20:17.962Z,7.81
2018-11-07T02:20:18.562Z,7.72
2018-11-07T02:21:12.644Z,7.77
2018-11-07T02:21:13.214Z,7.72
2018-11-07T02:21:13.816Z,7.74
2018-11-07T02:21:14.415Z,7.79
2018-11-07T02:21:15.014Z,7.81
2018-11-07T02:21:15.619Z,7.72
2018-11-07T02:21:16.214Z,7.77
2018-11-07T02:22:10.270Z,7.77
2018-11-07T02:22:10.867Z,7.74
2018-11-07T02:22:11.466Z,7.78
2018-11-07T02:22:12.067Z,7.82
2018-11-07T02:22:12.664Z,7.81
2018-11-07T02:22:13.268Z,7.75
2018-11-07T02:22:13.865Z,7.74
2018-11-07T02:23:07.919Z,7.79
2018-11-07T02:23:08.518Z,7.78
2018-11-07T02:23:09.118Z,7.72
2018-11-07T02:23:09.717Z,7.77
2018-11-07T02:23:10.318Z,7.78
2018-11-07T02:23:10.918Z,7.77
2018-11-07T02:23:11.518Z,7.77
2018-11-07T02:24:05.573Z,7.79
2018-11-07T02:24:06.171Z,7.82
2018-11-07T02:24:06.769Z,7.81
2018-11-07T02:24:07.372Z,7.74
2018-11-07T02:24:07.969Z,7.75
2018-11-07T02:24:08.576Z,7.78
2018-11-07T02:24:09.169Z,7.79
2018-11-07T02:25:03.224Z,7.79
2018-11-07T02:25:03.821Z,7.75
2018-11-07T02:25:04.421Z,7.79
2018-11-07T02:25:05.023Z,7.78
2018-11-07T02:25:05.621Z,7.79
2018-11-07T02:25:06.220Z,7.81
2018-11-07T02:25:06.820Z,7.81
2018-11-07T02:26:00.904Z,7.74
2018-11-07T02:26:01.474Z,7.77
2018-11-07T02:26:02.072Z,7.77
2018-11-07T02:26:02.677Z,7.82
2018-11-07T02:26:03.272Z,7.78
2018-11-07T02:26:03.872Z,7.78
2018-11-07T02:26:04.473Z,7.79
2018-11-07T02:26:58.528Z,7.72
2018-11-07T02:26:59.126Z,7.79
2018-11-07T02:26:59.728Z,7.79
2018-11-07T02:27:00.323Z,7.78
2018-11-07T02:27:00.923Z,7.81
2018-11-07T02:27:01.524Z,7.78
2018-11-07T02:27:02.123Z,7.74
2018-11-07T02:27:56.179Z,7.72
2018-11-07T02:27:56.775Z,7.74
2018-11-07T02:27:57.374Z,7.77
2018-11-07T02:27:57.973Z,7.78
2018-11-07T02:27:58.573Z,7.75
2018-11-07T02:27:59.175Z,7.81
2018-11-07T02:27:59.776Z,7.78
2018-11-07T02:28:53.829Z,7.78
2018-11-07T02:28:54.426Z,7.84
2018-11-07T02:28:55.026Z,7.78
2018-11-07T02:28:55.625Z,7.74
2018-11-07T02:28:56.226Z,7.79
2018-11-07T02:28:56.827Z,7.75
2018-11-07T02:28:57.425Z,7.79
2018-11-07T02:29:51.481Z,7.77
2018-11-07T02:29:52.078Z,7.77
2018-11-07T02:29:52.677Z,7.77
2018-11-07T02:29:53.277Z,7.82
2018-11-07T02:29:53.877Z,7.77
2018-11-07T02:29:54.477Z,7.79
2018-11-07T02:29:55.077Z,7.82
2018-11-07T02:30:49.158Z,7.75
2018-11-07T02:30:49.728Z,7.82
2018-11-07T02:30:50.330Z,7.79
2018-11-07T02:30:50.928Z,7.72
2018-11-07T02:30:51.529Z,7.81
2018-11-07T02:30:52.127Z,7.78
2018-11-07T02:30:52.729Z,7.78
2018-11-07T02:31:46.788Z,7.78
2018-11-07T02:31:47.385Z,7.81
2018-11-07T02:31:47.990Z,7.79
2018-11-07T02:31:48.585Z,7.90
2018-11-07T02:31:49.190Z,7.79
2018-11-07T02:31:49.785Z,7.77
2018-11-07T02:31:50.385Z,7.87
2018-11-07T02:32:44.439Z,7.89
2018-11-07T02:32:45.034Z,7.79
2018-11-07T02:32:45.639Z,7.79
2018-11-07T02:32:46.232Z,7.81
2018-11-07T02:32:46.833Z,7.82
2018-11-07T02:32:47.433Z,7.82
2018-11-07T02:32:48.037Z,7.82
2018-11-07T02:33:42.087Z,7.82
2018-11-07T02:33:42.684Z,7.81
2018-11-07T02:33:43.289Z,7.90
2018-11-07T02:33:43.886Z,7.84
2018-11-07T02:33:44.484Z,7.85
2018-11-07T02:33:45.085Z,7.81
2018-11-07T02:33:45.684Z,7.84
2018-11-07T02:34:39.741Z,7.87
2018-11-07T02:34:40.337Z,7.81
2018-11-07T02:34:40.934Z,7.84
2018-11-07T02:34:41.534Z,7.92
2018-11-07T02:34:42.134Z,7.92
2018-11-07T02:34:42.738Z,7.87
2018-11-07T02:34:43.334Z,7.87
2018-11-07T02:35:37.416Z,7.87
2018-11-07T02:35:37.989Z,7.90
2018-11-07T02:35:38.589Z,7.94
2018-11-07T02:35:39.188Z,7.85
2018-11-07T02:35:39.789Z,7.92
2018-11-07T02:35:40.393Z,7.90
2018-11-07T02:35:40.990Z,7.85
2018-11-07T02:36:35.044Z,7.92
2018-11-07T02:36:35.639Z,7.90
2018-11-07T02:36:36.241Z,7.85
2018-11-07T02:36:36.844Z,7.90
2018-11-07T02:36:37.440Z,7.94
2018-11-07T02:36:38.041Z,7.87
2018-11-07T02:36:38.639Z,7.89
2018-11-07T02:37:32.694Z,7.84
2018-11-07T02:37:33.290Z,7.92
2018-11-07T02:37:33.893Z,7.89
2018-11-07T02:37:34.494Z,7.92
2018-11-07T02:37:35.091Z,7.96
2018-11-07T02:37:35.689Z,7.87
2018-11-07T02:37:36.292Z,8.00
2018-11-07T02:38:30.348Z,7.87
2018-11-07T02:38:30.943Z,8.00
2018-11-07T02:38:31.545Z,7.99
2018-11-07T02:38:32.142Z,7.97
2018-11-07T02:38:32.741Z,8.07
2018-11-07T02:38:33.344Z,7.94
2018-11-07T02:38:33.943Z,7.92
2018-11-07T02:39:27.998Z,7.99
2018-11-07T02:39:28.595Z,7.99
2018-11-07T02:39:29.194Z,7.97
2018-11-07T02:39:29.793Z,7.92
2018-11-07T02:39:30.394Z,7.99
2018-11-07T02:39:30.996Z,7.99
2018-11-07T02:39:31.595Z,7.94
2018-11-07T02:40:25.649Z,7.94
2018-11-07T02:40:26.246Z,7.94
2018-11-07T02:40:26.847Z,7.99
2018-11-07T02:40:27.447Z,7.96
2018-11-07T02:40:28.047Z,8.03
2018-11-07T02:40:28.648Z,7.99
2018-11-07T02:40:29.247Z,8.04
2018-11-07T02:41:23.325Z,8.03
2018-11-07T02:41:23.897Z,8.08
2018-11-07T02:41:24.499Z,8.04
2018-11-07T02:41:25.098Z,8.04
2018-11-07T02:41:25.699Z,8.08
2018-11-07T02:41:26.305Z,8.00
2018-11-07T02:41:26.899Z,8.07
2018-11-07T02:42:20.953Z,7.99
2018-11-07T02:42:21.550Z,8.07
2018-11-07T02:42:22.152Z,7.94
2018-11-07T02:42:22.753Z,7.99
2018-11-07T02:42:23.362Z,8.11
2018-11-07T02:42:23.952Z,7.96
2018-11-07T02:42:24.549Z,8.10
2018-11-07T02:43:18.607Z,7.97
2018-11-07T02:43:19.217Z,8.07
2018-11-07T02:43:19.804Z,8.02
2018-11-07T02:43:20.404Z,8.08
2018-11-07T02:43:21.005Z,8.08
2018-11-07T02:43:21.609Z,8.07
2018-11-07T02:43:22.206Z,8.10
2018-11-07T02:44:16.257Z,8.03
2018-11-07T02:44:16.860Z,8.04
2018-11-07T02:44:17.453Z,8.07
2018-11-07T02:44:18.051Z,7.97
2018-11-07T02:44:18.652Z,8.02
2018-11-07T02:44:19.252Z,8.11
2018-11-07T02:44:19.851Z,8.07
2018-11-07T02:45:13.910Z,8.07
2018-11-07T02:45:14.507Z,8.11
2018-11-07T02:45:15.104Z,8.08
2018-11-07T02:45:15.716Z,7.99
2018-11-07T02:45:16.304Z,8.00
2018-11-07T02:45:16.905Z,8.00
2018-11-07T02:45:17.505Z,8.00
2018-11-07T02:46:11.587Z,8.00
2018-11-07T02:46:12.157Z,8.04
2018-11-07T02:46:12.759Z,8.00
2018-11-07T02:46:13.362Z,8.04
2018-11-07T02:46:13.954Z,7.99
2018-11-07T02:46:14.554Z,7.99
2018-11-07T02:46:15.154Z,8.03
2018-11-07T02:47:09.218Z,8.00
2018-11-07T02:47:09.807Z,8.08
2018-11-07T02:47:10.406Z,8.10
2018-11-07T02:47:11.006Z,8.15
2018-11-07T02:47:11.606Z,8.11
2018-11-07T02:47:12.206Z,8.17
2018-11-07T02:47:12.808Z,8.10
2018-11-07T02:48:06.863Z,8.14
2018-11-07T02:48:07.460Z,8.18
2018-11-07T02:48:08.063Z,8.17
2018-11-07T02:48:08.660Z,8.17
2018-11-07T02:48:09.262Z,8.12
2018-11-07T02:48:09.858Z,8.15
2018-11-07T02:48:10.459Z,8.18
2018-11-07T02:49:04.514Z,8.17
2018-11-07T02:49:05.114Z,8.15
2018-11-07T02:49:05.711Z,8.21
2018-11-07T02:49:06.310Z,8.10
2018-11-07T02:49:06.915Z,8.18
2018-11-07T02:49:07.510Z,8.17
2018-11-07T02:49:08.111Z,8.15
2018-11-07T02:50:02.169Z,8.22
2018-11-07T02:50:02.763Z,8.14
2018-11-07T02:50:03.364Z,8.20
2018-11-07T02:50:03.963Z,8.26
2018-11-07T02:50:04.565Z,8.21
2018-11-07T02:50:05.163Z,8.25
2018-11-07T02:50:05.767Z,8.20
2018-11-07T02:50:59.841Z,8.25
2018-11-07T02:51:00.416Z,8.15
2018-11-07T02:51:01.016Z,8.21
2018-11-07T02:51:01.616Z,8.25
2018-11-07T02:51:02.215Z,8.21
2018-11-07T02:51:02.814Z,8.21
2018-11-07T02:51:03.421Z,8.22
2018-11-07T02:51:57.473Z,8.20
2018-11-07T02:51:58.067Z,8.28
2018-11-07T02:51:58.666Z,8.25
2018-11-07T02:51:59.274Z,8.26
2018-11-07T02:51:59.868Z,8.21
2018-11-07T02:52:00.465Z,8.18
2018-11-07T02:52:01.356Z,8.30
2018-11-07T02:52:55.353Z,8.22
2018-11-07T02:52:55.924Z,8.22
2018-11-07T02:52:56.523Z,8.26
2018-11-07T02:52:57.125Z,8.26
2018-11-07T02:52:57.722Z,8.21
2018-11-07T02:52:58.324Z,8.25
2018-11-07T02:52:58.923Z,8.25
2018-11-07T02:53:52.978Z,8.25
2018-11-07T02:53:53.574Z,8.22
2018-11-07T02:53:54.174Z,8.25
2018-11-07T02:53:54.775Z,8.20
2018-11-07T02:53:55.373Z,8.28
2018-11-07T02:53:55.980Z,8.18
2018-11-07T02:53:56.573Z,8.20
2018-11-07T02:54:50.632Z,8.17
2018-11-07T02:54:51.227Z,8.26
2018-11-07T02:54:51.835Z,8.25
2018-11-07T02:54:52.426Z,8.21
2018-11-07T02:54:53.026Z,8.26
2018-11-07T02:54:53.627Z,8.25
2018-11-07T02:54:54.225Z,8.26
2018-11-07T02:55:48.310Z,8.18
2018-11-07T02:55:48.882Z,8.18
2018-11-07T02:55:49.480Z,8.25
2018-11-07T02:55:50.081Z,8.28
2018-11-07T02:55:50.679Z,8.26
2018-11-07T02:55:51.278Z,8.25
2018-11-07T02:55:51.881Z,8.22
2018-11-07T02:56:45.934Z,8.21
2018-11-07T02:56:46.531Z,8.28
2018-11-07T02:56:47.134Z,8.32
2018-11-07T02:56:47.729Z,8.28
2018-11-07T02:56:48.329Z,8.25
2018-11-07T02:56:48.931Z,8.25
2018-11-07T02:56:49.530Z,8.26
2018-11-07T02:57:43.584Z,8.17
2018-11-07T02:57:44.182Z,8.26
2018-11-07T02:57:44.783Z,8.21
2018-11-07T02:57:45.381Z,8.26
2018-11-07T02:57:45.984Z,8.22
2018-11-07T02:57:46.581Z,8.28
2018-11-07T02:57:47.188Z,8.28
2018-11-07T02:58:41.237Z,8.26
2018-11-07T02:58:41.837Z,8.28
2018-11-07T02:58:42.432Z,8.26
2018-11-07T02:58:43.031Z,8.26
2018-11-07T02:58:43.631Z,8.28
2018-11-07T02:58:44.231Z,8.32
2018-11-07T02:58:44.834Z,8.29
2018-11-07T02:59:38.888Z,8.21
2018-11-07T02:59:39.488Z,8.28
2018-11-07T02:59:40.084Z,8.21
2018-11-07T02:59:40.685Z,8.26
2018-11-07T02:59:41.285Z,8.20
2018-11-07T02:59:41.889Z,8.28
2018-11-07T02:59:42.490Z,8.25
2018-11-07T03:00:36.562Z,8.28
2018-11-07T03:00:37.138Z,8.26
2018-11-07T03:00:37.739Z,8.28
2018-11-07T03:00:38.341Z,8.22
2018-11-07T03:00:38.936Z,8.30
2018-11-07T03:00:39.538Z,8.28
2018-11-07T03:00:40.137Z,8.25
2018-11-07T03:01:34.190Z,8.22
2018-11-07T03:01:34.791Z,8.20
2018-11-07T03:01:35.389Z,8.26
2018-11-07T03:01:35.988Z,8.30
2018-11-07T03:01:36.589Z,8.26
2018-11-07T03:01:37.191Z,8.20
2018-11-07T03:01:37.788Z,8.20
2018-11-07T03:02:31.897Z,8.25
2018-11-07T03:02:32.442Z,8.26
2018-11-07T03:02:33.041Z,8.25
2018-11-07T03:02:33.643Z,8.28
2018-11-07T03:02:34.244Z,8.26
2018-11-07T03:02:34.842Z,8.28
2018-11-07T03:02:35.439Z,8.32
2018-11-07T03:03:29.495Z,8.15
2018-11-07T03:03:30.092Z,8.29
2018-11-07T03:03:30.691Z,8.25
2018-11-07T03:03:31.293Z,8.25
2018-11-07T03:03:31.893Z,8.22
2018-11-07T03:03:32.493Z,8.20
2018-11-07T03:03:33.093Z,8.21
2018-11-07T03:04:27.148Z,8.29
2018-11-07T03:04:27.744Z,8.28
2018-11-07T03:04:28.344Z,8.26
2018-11-07T03:04:28.944Z,8.17
2018-11-07T03:04:29.545Z,8.21
2018-11-07T03:04:30.140Z,8.18
2018-11-07T03:04:30.741Z,8.29
2018-11-07T03:05:24.798Z,8.22
2018-11-07T03:05:25.396Z,8.22
2018-11-07T03:05:25.999Z,8.15
2018-11-07T03:05:26.595Z,8.21
2018-11-07T03:05:27.195Z,8.20
2018-11-07T03:05:27.797Z,8.18
2018-11-07T03:05:28.395Z,8.26
2018-11-07T03:06:22.473Z,8.18
2018-11-07T03:06:23.049Z,8.22
2018-11-07T03:06:23.650Z,8.28
2018-11-07T03:06:24.247Z,8.22
2018-11-07T03:06:24.849Z,8.22
2018-11-07T03:06:25.448Z,8.20
2018-11-07T03:06:26.046Z,8.21
2018-11-07T03:07:20.102Z,8.14
2018-11-07T03:07:20.698Z,8.25
2018-11-07T03:07:21.300Z,8.18
2018-11-07T03:07:21.899Z,8.25
2018-11-07T03:07:22.499Z,8.21
2018-11-07T03:07:23.099Z,8.18
2018-11-07T03:07:23.698Z,8.28
2018-11-07T03:08:17.243Z,8.18
2018-11-07T03:08:17.843Z,8.18
2018-11-07T03:08:18.446Z,8.22
2018-11-07T03:08:19.044Z,8.20
2018-11-07T03:08:19.639Z,8.26
2018-11-07T03:08:20.239Z,8.25
2018-11-07T03:08:20.840Z,8.25
2018-11-07T03:08:21.440Z,8.22
2018-11-07T03:09:15.406Z,8.18
2018-11-07T03:09:16.008Z,8.22
2018-11-07T03:09:16.603Z,8.22
2018-11-07T03:09:17.201Z,8.22
2018-11-07T03:09:17.801Z,8.18
2018-11-07T03:09:18.407Z,8.21
2018-11-07T03:09:19.004Z,8.17
2018-11-07T03:10:33.187Z,8.20
2018-11-07T03:10:33.692Z,8.20
2018-11-07T03:10:34.279Z,8.28
2018-11-07T03:10:34.843Z,8.17
2018-11-07T03:10:35.451Z,8.20
2018-11-07T03:10:36.057Z,8.18
2018-11-07T03:10:36.641Z,8.25
2018-11-07T03:11:30.676Z,8.22
2018-11-07T03:11:31.279Z,8.20
2018-11-07T03:11:31.874Z,8.17
2018-11-07T03:11:32.476Z,8.28
2018-11-07T03:11:33.079Z,8.20
2018-11-07T03:11:33.674Z,8.21
2018-11-07T03:11:34.273Z,8.21
2018-11-07T03:12:27.817Z,8.22
2018-11-07T03:12:28.417Z,8.20
2018-11-07T03:12:29.012Z,8.22
2018-11-07T03:12:29.612Z,8.22
2018-11-07T03:12:30.212Z,8.25
2018-11-07T03:12:30.816Z,8.22
2018-11-07T03:12:31.412Z,8.15
2018-11-07T03:12:32.011Z,8.22
2018-11-07T03:13:25.979Z,8.14
2018-11-07T03:13:26.581Z,8.26
2018-11-07T03:13:27.176Z,8.20
2018-11-07T03:13:27.777Z,8.18
2018-11-07T03:13:28.376Z,8.22
2018-11-07T03:13:28.977Z,8.22
2018-11-07T03:13:29.582Z,8.20
2018-11-07T03:14:43.600Z,8.15
2018-11-07T03:14:44.196Z,8.25
2018-11-07T03:14:44.796Z,8.26
2018-11-07T03:14:45.401Z,8.20
2018-11-07T03:14:45.999Z,8.18
2018-11-07T03:14:46.595Z,8.18
2018-11-07T03:14:47.197Z,8.25
2018-11-07T03:15:41.278Z,8.22
2018-11-07T03:15:41.848Z,8.10
2018-11-07T03:15:42.449Z,8.22
2018-11-07T03:15:43.048Z,8.17
2018-11-07T03:15:43.647Z,8.22
2018-11-07T03:15:44.249Z,8.20
2018-11-07T03:15:44.848Z,8.21
2018-11-07T03:16:38.902Z,8.17
2018-11-07T03:16:39.501Z,8.21
2018-11-07T03:16:40.101Z,8.12
2018-11-07T03:16:40.699Z,8.14
2018-11-07T03:16:41.300Z,8.20
2018-11-07T03:16:41.901Z,8.17
2018-11-07T03:16:42.499Z,8.15
2018-11-07T03:17:36.555Z,8.20
2018-11-07T03:17:37.152Z,8.17
2018-11-07T03:17:37.751Z,8.17
2018-11-07T03:17:38.352Z,8.20
2018-11-07T03:17:38.952Z,8.18
2018-11-07T03:17:39.553Z,8.11
2018-11-07T03:17:40.151Z,8.14
2018-11-07T03:18:34.207Z,8.17
2018-11-07T03:18:34.803Z,8.15
2018-11-07T03:18:35.403Z,8.18
2018-11-07T03:18:36.004Z,8.17
2018-11-07T03:18:36.604Z,8.18
2018-11-07T03:18:37.203Z,8.07